Vela Gallego Dos — EA3200 — position and weather

sailwx.info

Track history (hours):
 
Tides and Currents Weather Stations Pressure Air Temp Water Temp Dewpoint Dewpoint Depression Visibility Wind Speed Wind Dir Waves Ship Positions

Vela Gallego Dos

Last reported at 2017-Oct-23 05:30 UTC. Time now 2017-Oct-23 08:20 UTC.
Position N 37°36' W 000°29'.

Length 24 m; draft 3 m.

Type: Fishing. MMSI: 224027970.

Date/timePositionNaut miles runAvg speedWind from/ knotsBaromVisibWave heightAir tempDewpointWater temp
2017-Oct-23 05:30N 37°36' W 000°29'4 7.6
2017-Oct-23 05:00N 37°34' W 000°34'810.4
2017-Oct-23 04:12N 37°33' W 000°44'210.5
2017-Oct-23 04:00N 37°33' W 000°47'510.4
2017-Oct-23 03:30N 37°33' W 000°53'  
2017-Oct-19 05:14N 37°32' W 000°55'1 2.6
2017-Oct-19 04:59N 37°32' W 000°55'2 2.7
2017-Oct-19 04:21N 37°32' W 000°53'1 2.3
2017-Oct-19 03:53N 37°32' W 000°51'3 0.1
2017-Oct-17 15:44N 37°33' W 000°55'311.2
2017-Oct-17 15:30N 37°33' W 000°52'611.0
2017-Oct-17 14:59N 37°34' W 000°44'511.0
2017-Oct-17 14:30N 37°34' W 000°38'7 0.7
2017-Oct-17 04:07N 37°30' W 000°45'110.8
2017-Oct-17 04:00N 37°31' W 000°47'  
Track history (hours):
 
Tides and Currents Weather Stations Pressure Air Temp Water Temp Dewpoint Dewpoint Depression Visibility Wind Speed Wind Dir Waves Ship Positions

Vela Gallego Dos

Last reported at 2017-Oct-23 05:30 UTC. Time now 2017-Oct-23 08:20 UTC.
Position N 37°36' W 000°29'.

Length 24 m; draft 3 m.

Type: Fishing. MMSI: 224027970.

Date/timePositionNaut miles runAvg speedWind from/ knotsBaromVisibWave heightAir tempDewpointWater temp
2017-Oct-23 05:30N 37°36' W 000°29'4 7.6
2017-Oct-23 05:00N 37°34' W 000°34'810.4
2017-Oct-23 04:12N 37°33' W 000°44'210.5
2017-Oct-23 04:00N 37°33' W 000°47'510.4
2017-Oct-23 03:30N 37°33' W 000°53'  
2017-Oct-19 05:14N 37°32' W 000°55'1 2.6
2017-Oct-19 04:59N 37°32' W 000°55'2 2.7
2017-Oct-19 04:21N 37°32' W 000°53'1 2.3
2017-Oct-19 03:53N 37°32' W 000°51'3 0.1
2017-Oct-17 15:44N 37°33' W 000°55'311.2
2017-Oct-17 15:30N 37°33' W 000°52'611.0
2017-Oct-17 14:59N 37°34' W 000°44'511.0
2017-Oct-17 14:30N 37°34' W 000°38'7 0.7
2017-Oct-17 04:07N 37°30' W 000°45'110.8
2017-Oct-17 04:00N 37°31' W 000°47'  

Dump ship's entire track history